createdAt,value
2022-08-30T00:03:17.256Z,97299.91
2022-08-30T00:08:39.173Z,97298.91
2022-08-30T00:14:00.375Z,97300.59
2022-08-30T00:19:20.943Z,97296.94
2022-08-30T00:24:41.812Z,97295.66
2022-08-30T00:30:03.016Z,97302.56
2022-08-30T00:35:24.255Z,97307.53
2022-08-30T00:40:46.211Z,97296.47
2022-08-30T00:46:08.612Z,97300.25
2022-08-30T00:51:32.022Z,97300.44
2022-08-30T00:56:53.287Z,97292.66
2022-08-30T01:02:14.571Z,97297.28
2022-08-30T01:07:35.303Z,97297.44
2022-08-30T01:12:56.197Z,97300.25
2022-08-30T01:18:18.893Z,97295.66
2022-08-30T01:23:46.278Z,97299.59
2022-08-30T01:29:11.933Z,97293.84
2022-08-30T01:34:32.718Z,97300.28
2022-08-30T01:39:53.890Z,97294.97
2022-08-30T01:45:14.528Z,97296.84
2022-08-30T01:50:35.233Z,97296.16
2022-08-30T01:55:59.208Z,97292.03
2022-08-30T02:01:23.777Z,97289.25
2022-08-30T02:06:44.828Z,97294.69
2022-08-30T02:12:08.084Z,97284.97
2022-08-30T02:17:29.047Z,97291.41
2022-08-30T02:22:50.307Z,97288.78
2022-08-30T02:28:11.792Z,97288.09
2022-08-30T02:33:38.024Z,97287.13
2022-08-30T02:39:01.227Z,97291.56
2022-08-30T02:44:21.954Z,97289.41
2022-08-30T02:49:42.842Z,97288.91
2022-08-30T02:55:05.413Z,97281.69
2022-08-30T03:00:26.068Z,97281.03
2022-08-30T03:05:46.819Z,97284.00
2022-08-30T03:11:07.825Z,97284.81
2022-08-30T03:16:28.553Z,97292.53
2022-08-30T03:21:50.437Z,97294.66
2022-08-30T03:27:12.665Z,97289.91
2022-08-30T03:32:34.111Z,97290.06
2022-08-30T03:37:56.269Z,97295.50
2022-08-30T03:43:17.526Z,97301.09
2022-08-30T03:48:38.522Z,97288.75
2022-08-30T03:53:59.927Z,97292.22
2022-08-30T03:59:21.016Z,97293.34
2022-08-30T04:04:42.078Z,97287.28
2022-08-30T04:10:05.356Z,97286.31
2022-08-30T04:15:25.960Z,97276.25
2022-08-30T04:20:47.489Z,97278.53
2022-08-30T04:26:08.828Z,97286.63
2022-08-30T04:31:31.724Z,97291.06
2022-08-30T04:36:52.824Z,97298.13
2022-08-30T04:42:13.929Z,97294.69
2022-08-30T04:47:35.179Z,97305.22
2022-08-30T04:52:55.656Z,97315.91
2022-08-30T04:58:16.727Z,97316.75
2022-08-30T05:03:37.851Z,97321.16
2022-08-30T05:09:00.921Z,97323.47
2022-08-30T05:14:21.513Z,97327.25
2022-08-30T05:19:42.427Z,97325.91
2022-08-30T05:25:05.157Z,97321.63
2022-08-30T05:30:27.919Z,97326.41
2022-08-30T05:35:48.899Z,97329.56
2022-08-30T05:41:10.786Z,97336.31
2022-08-30T05:51:55.506Z,97334.66
2022-08-30T05:57:17.530Z,97341.91
2022-08-30T06:02:38.373Z,97343.53
2022-08-30T06:07:59.120Z,97348.16
2022-08-30T06:13:19.765Z,97344.34
2022-08-30T06:18:41.122Z,97354.19
2022-08-30T06:24:04.275Z,97342.75
2022-08-30T06:29:25.289Z,97338.81
2022-08-30T06:34:46.124Z,97334.84
2022-08-30T06:40:07.512Z,97343.09
2022-08-30T06:45:28.089Z,97345.22
2022-08-30T06:50:54.097Z,97351.16
2022-08-30T06:56:17.868Z,97351.97
2022-08-30T07:01:39.188Z,97348.59
2022-08-30T07:07:00.350Z,97348.53
2022-08-30T07:12:21.572Z,97337.94
2022-08-30T07:18:01.381Z,97356.91
2022-08-30T07:23:21.930Z,97355.25
2022-08-30T07:28:44.914Z,97363.19
2022-08-30T07:34:07.549Z,97366.13
2022-08-30T07:39:28.889Z,97365.97
2022-08-30T07:44:56.508Z,97364.31
2022-08-30T07:50:17.502Z,97358.00
2022-08-30T07:55:38.912Z,97365.13
2022-08-30T08:01:00.292Z,97375.69
2022-08-30T08:06:23.740Z,97379.69
2022-08-30T08:11:44.307Z,97366.75
2022-08-30T08:17:05.193Z,97381.88
2022-08-30T08:22:26.007Z,97377.13
2022-08-30T08:27:49.092Z,97379.00
2022-08-30T08:33:10.745Z,97382.63
2022-08-30T08:38:32.096Z,97379.53
2022-08-30T08:43:52.952Z,97376.06
2022-08-30T08:49:13.707Z,97377.94
2022-08-30T08:54:43.052Z,97382.94
2022-08-30T09:00:10.271Z,97371.44
2022-08-30T09:05:41.103Z,97372.34
2022-08-30T09:11:13.514Z,97361.59
2022-08-30T09:16:48.110Z,97350.91
2022-08-30T09:22:35.753Z,97358.72
2022-08-30T09:28:12.051Z,97354.88
2022-08-30T09:33:33.694Z,97346.78
2022-08-30T09:39:01.958Z,97349.13
2022-08-30T09:44:28.010Z,97345.03
2022-08-30T09:49:49.243Z,97336.22
2022-08-30T09:55:32.149Z,97337.75
2022-08-30T10:01:04.553Z,97337.69
2022-08-30T10:06:34.072Z,97331.53
2022-08-30T10:12:23.023Z,97333.19
2022-08-30T10:18:04.660Z,97330.13
2022-08-30T10:23:33.885Z,97336.03
2022-08-30T10:29:02.344Z,97337.38
2022-08-30T10:34:39.950Z,97323.53
2022-08-30T10:40:28.344Z,97325.41
2022-08-30T10:45:51.364Z,97306.97
2022-08-30T10:51:26.821Z,97313.41
2022-08-30T10:56:54.352Z,97321.78
2022-08-30T11:02:30.753Z,97311.03
2022-08-30T11:08:37.354Z,97320.88
2022-08-30T11:14:05.444Z,97324.50
2022-08-30T11:19:32.179Z,97322.91
2022-08-30T11:25:09.675Z,97316.34
2022-08-30T11:30:31.077Z,97323.97
2022-08-30T11:35:53.740Z,97324.03
2022-08-30T11:41:30.608Z,97311.84
2022-08-30T11:46:59.931Z,97312.94
2022-08-30T11:52:42.219Z,97314.78
2022-08-30T11:58:11.579Z,97321.47
2022-08-30T12:03:35.134Z,97317.13
2022-08-30T12:09:02.715Z,97315.06
2022-08-30T12:14:49.564Z,97319.69
2022-08-30T12:20:22.962Z,97308.66
2022-08-30T12:25:43.808Z,97299.06
2022-08-30T12:31:11.613Z,97297.00
2022-08-30T12:36:39.546Z,97293.47
2022-08-30T12:42:19.093Z,97284.31
2022-08-30T12:47:52.623Z,97288.81
2022-08-30T12:53:14.392Z,97282.41
2022-08-30T12:58:52.642Z,97280.78
2022-08-30T13:04:21.393Z,97272.84
2022-08-30T13:09:44.360Z,97273.50
2022-08-30T13:15:19.877Z,97266.63
2022-08-30T13:20:40.990Z,97270.09
2022-08-30T13:26:01.984Z,97267.84
2022-08-30T13:31:23.127Z,97263.38
2022-08-30T13:36:48.293Z,97263.22
2022-08-30T13:47:50.478Z,97245.47
2022-08-30T13:53:11.572Z,97239.13
2022-08-30T13:58:33.431Z,97229.34
2022-08-30T14:09:35.423Z,97236.91
2022-08-30T14:14:59.524Z,97223.44
2022-08-30T14:20:20.985Z,97228.31
2022-08-30T14:25:41.847Z,97219.75
2022-08-30T14:31:02.631Z,97222.84
2022-08-30T14:36:23.625Z,97217.31
2022-08-30T14:41:52.106Z,97215.88
2022-08-30T14:47:13.004Z,97200.97
2022-08-30T14:52:34.183Z,97203.59
2022-08-30T14:57:54.809Z,97192.38
2022-08-30T15:03:15.709Z,97199.31
2022-08-30T15:08:37.333Z,97195.03
2022-08-30T15:13:58.285Z,97185.44
2022-08-30T15:19:19.238Z,97185.44
2022-08-30T15:24:40.959Z,97180.34
2022-08-30T15:30:01.898Z,97181.38
2022-08-30T15:35:22.874Z,97188.09
2022-08-30T15:40:44.763Z,97172.78
2022-08-30T15:46:30.088Z,97171.34
2022-08-30T15:51:54.355Z,97180.09
2022-08-30T15:57:15.873Z,97174.13
2022-08-30T16:02:36.867Z,97173.31
2022-08-30T16:07:59.773Z,97174.31
2022-08-30T16:13:20.798Z,97170.66
2022-08-30T16:18:41.959Z,97167.56
2022-08-30T16:24:04.190Z,97166.97
2022-08-30T16:29:25.456Z,97166.34
2022-08-30T16:34:46.271Z,97168.34
2022-08-30T16:40:07.682Z,97159.97
2022-08-30T16:45:34.275Z,97165.47
2022-08-30T16:50:56.771Z,97162.00
2022-08-30T16:56:21.391Z,97157.47
2022-08-30T17:07:24.821Z,97165.59
2022-08-30T17:12:45.857Z,97166.59
2022-08-30T17:18:07.165Z,97173.03
2022-08-30T17:23:29.976Z,97171.69
2022-08-30T17:28:50.918Z,97175.72
2022-08-30T17:34:13.226Z,97176.25
2022-08-30T17:39:34.843Z,97183.13
2022-08-30T17:44:58.035Z,97178.38
2022-08-30T17:50:22.159Z,97177.25
2022-08-30T17:55:49.149Z,97179.22
2022-08-30T18:01:13.455Z,97190.38
2022-08-30T18:06:35.301Z,97188.44
2022-08-30T18:11:56.365Z,97203.56
2022-08-30T18:17:17.503Z,97191.16
2022-08-30T18:22:38.170Z,97194.94
2022-08-30T18:27:59.287Z,97214.63
2022-08-30T18:33:20.028Z,97215.94
2022-08-30T18:38:42.573Z,97212.50
2022-08-30T18:44:26.327Z,97220.78
2022-08-30T18:49:44.543Z,97224.59
2022-08-30T18:55:05.968Z,97228.16
2022-08-30T19:00:27.166Z,97228.91
2022-08-30T19:05:47.869Z,97224.81
2022-08-30T19:11:09.490Z,97220.63
2022-08-30T19:16:30.262Z,97227.78
2022-08-30T19:21:51.942Z,97237.56
2022-08-30T19:27:12.842Z,97235.38
2022-08-30T19:32:33.710Z,97233.50
2022-08-30T19:37:54.813Z,97238.44
2022-08-30T19:43:15.601Z,97235.59
2022-08-30T19:48:43.166Z,97230.38
2022-08-30T19:54:04.895Z,97231.38
2022-08-30T19:59:29.302Z,97232.75
2022-08-30T20:04:50.561Z,97236.72
2022-08-30T20:10:13.909Z,97240.19
2022-08-30T20:15:34.545Z,97239.38
2022-08-30T20:20:57.044Z,97229.88
2022-08-30T20:24:23.219Z,97154.41
2022-08-30T20:26:18.122Z,97237.31
2022-08-30T20:31:39.160Z,97226.59
2022-08-30T20:37:00.073Z,97226.22
2022-08-30T20:42:21.154Z,97226.22
2022-08-30T20:47:43.230Z,97217.16
2022-08-30T20:53:04.321Z,97218.41
2022-08-30T20:58:25.259Z,97226.63
2022-08-30T21:03:47.698Z,97225.81
2022-08-30T21:09:09.098Z,97231.09
2022-08-30T21:14:29.786Z,97236.44
2022-08-30T21:19:54.463Z,97235.09
2022-08-30T21:25:15.267Z,97227.63
2022-08-30T21:30:36.797Z,97227.28
2022-08-30T21:36:17.685Z,97233.91
2022-08-30T21:41:39.415Z,97230.41
2022-08-30T21:46:59.973Z,97230.41
2022-08-30T21:52:20.767Z,97228.94
2022-08-30T21:57:41.378Z,97241.69
2022-08-30T22:03:02.402Z,97235.91
2022-08-30T22:08:23.122Z,97243.03
2022-08-30T22:13:46.239Z,97239.50
2022-08-30T22:19:09.550Z,97236.25
2022-08-30T22:24:32.868Z,97237.78
2022-08-30T22:29:53.746Z,97243.53
2022-08-30T22:35:14.406Z,97233.78
2022-08-30T22:40:35.560Z,97233.13
2022-08-30T22:45:57.985Z,97238.78
2022-08-30T22:51:21.462Z,97232.31
2022-08-30T22:56:42.299Z,97235.97
2022-08-30T23:02:03.471Z,97223.69
2022-08-30T23:07:24.839Z,97226.97
2022-08-30T23:12:45.537Z,97221.69
2022-08-30T23:18:06.597Z,97221.91
2022-08-30T23:23:45.956Z,97220.41
2022-08-30T23:29:25.860Z,97207.88
2022-08-30T23:35:05.516Z,97211.44
2022-08-30T23:40:45.318Z,97201.09
2022-08-30T23:46:24.381Z,97200.03
2022-08-30T23:52:03.408Z,97200.31
2022-08-30T23:57:43.151Z,97201.47
